sensor_id;sensor_type;location;lat;lon;timestamp;P1;durP1;ratioP1;P2;durP2;ratioP2
70342;SDS011;57767;42.068;24.752;2023-08-24T00:00:12;10.38;;;7.82;;
70342;SDS011;57767;42.068;24.752;2023-08-24T00:01:15;8.95;;;8.15;;
70342;SDS011;57767;42.068;24.752;2023-08-24T00:02:18;11.40;;;8.50;;
70342;SDS011;57767;42.068;24.752;2023-08-24T00:03:19;9.07;;;7.70;;
70342;SDS011;57767;42.068;24.752;2023-08-24T00:04:22;10.75;;;8.20;;
70342;SDS011;57767;42.068;24.752;2023-08-24T00:05:24;11.80;;;8.30;;
70342;SDS011;57767;42.068;24.752;2023-08-24T00:06:26;10.57;;;8.30;;
70342;SDS011;57767;42.068;24.752;2023-08-24T00:07:29;8.93;;;7.95;;
70342;SDS011;57767;42.068;24.752;2023-08-24T00:08:30;9.60;;;8.23;;
70342;SDS011;57767;42.068;24.752;2023-08-24T00:09:32;10.55;;;8.48;;
70342;SDS011;57767;42.068;24.752;2023-08-24T00:10:35;13.57;;;8.32;;
70342;SDS011;57767;42.068;24.752;2023-08-24T00:11:37;10.15;;;8.30;;
70342;SDS011;57767;42.068;24.752;2023-08-24T00:12:42;9.27;;;7.88;;
70342;SDS011;57767;42.068;24.752;2023-08-24T00:13:44;8.65;;;7.75;;
70342;SDS011;57767;42.068;24.752;2023-08-24T00:14:50;11.35;;;8.13;;
70342;SDS011;57767;42.068;24.752;2023-08-24T00:15:53;10.98;;;8.07;;
70342;SDS011;57767;42.068;24.752;2023-08-24T00:16:55;8.77;;;7.95;;
70342;SDS011;57767;42.068;24.752;2023-08-24T00:17:57;8.77;;;7.82;;
70342;SDS011;57767;42.068;24.752;2023-08-24T00:18:59;10.85;;;7.90;;
70342;SDS011;57767;42.068;24.752;2023-08-24T00:20:00;10.20;;;7.45;;
70342;SDS011;57767;42.068;24.752;2023-08-24T00:21:05;9.38;;;8.32;;
70342;SDS011;57767;42.068;24.752;2023-08-24T00:22:09;12.73;;;7.85;;
70342;SDS011;57767;42.068;24.752;2023-08-24T00:23:10;9.60;;;8.15;;
70342;SDS011;57767;42.068;24.752;2023-08-24T00:24:12;11.20;;;8.02;;
70342;SDS011;57767;42.068;24.752;2023-08-24T00:25:14;9.77;;;8.52;;
70342;SDS011;57767;42.068;24.752;2023-08-24T00:26:16;13.55;;;8.20;;
70342;SDS011;57767;42.068;24.752;2023-08-24T00:27:21;9.55;;;8.13;;
70342;SDS011;57767;42.068;24.752;2023-08-24T00:28:23;9.82;;;8.13;;
70342;SDS011;57767;42.068;24.752;2023-08-24T00:29:24;8.65;;;7.80;;
70342;SDS011;57767;42.068;24.752;2023-08-24T00:30:26;8.75;;;7.95;;
70342;SDS011;57767;42.068;24.752;2023-08-24T00:31:28;11.63;;;8.32;;
70342;SDS011;57767;42.068;24.752;2023-08-24T00:32:30;8.50;;;7.57;;
70342;SDS011;57767;42.068;24.752;2023-08-24T00:33:34;10.40;;;8.13;;
70342;SDS011;57767;42.068;24.752;2023-08-24T00:34:36;9.25;;;8.13;;
70342;SDS011;57767;42.068;24.752;2023-08-24T00:35:38;9.35;;;8.40;;
70342;SDS011;57767;42.068;24.752;2023-08-24T00:36:39;9.50;;;8.05;;
70342;SDS011;57767;42.068;24.752;2023-08-24T00:37:41;14.00;;;9.27;;
70342;SDS011;57767;42.068;24.752;2023-08-24T00:38:43;8.57;;;7.70;;
70342;SDS011;57767;42.068;24.752;2023-08-24T00:39:45;9.50;;;8.50;;
70342;SDS011;57767;42.068;24.752;2023-08-24T00:40:47;9.27;;;8.38;;
70342;SDS011;57767;42.068;24.752;2023-08-24T00:41:49;9.70;;;8.60;;
70342;SDS011;57767;42.068;24.752;2023-08-24T00:42:50;9.32;;;8.43;;
70342;SDS011;57767;42.068;24.752;2023-08-24T00:43:52;9.02;;;8.13;;
70342;SDS011;57767;42.068;24.752;2023-08-24T00:44:55;11.00;;;8.70;;
70342;SDS011;57767;42.068;24.752;2023-08-24T00:45:58;10.23;;;8.20;;
70342;SDS011;57767;42.068;24.752;2023-08-24T00:47:02;8.63;;;7.88;;
70342;SDS011;57767;42.068;24.752;2023-08-24T00:48:04;9.68;;;8.02;;
70342;SDS011;57767;42.068;24.752;2023-08-24T00:49:06;10.38;;;8.15;;
70342;SDS011;57767;42.068;24.752;2023-08-24T00:50:09;8.88;;;8.02;;
70342;SDS011;57767;42.068;24.752;2023-08-24T00:51:11;12.05;;;8.10;;
70342;SDS011;57767;42.068;24.752;2023-08-24T00:52:13;15.73;;;8.40;;
70342;SDS011;57767;42.068;24.752;2023-08-24T00:53:15;11.82;;;7.72;;
70342;SDS011;57767;42.068;24.752;2023-08-24T00:54:18;13.38;;;7.72;;
70342;SDS011;57767;42.068;24.752;2023-08-24T00:55:20;10.48;;;7.80;;
70342;SDS011;57767;42.068;24.752;2023-08-24T00:56:22;10.07;;;8.32;;
70342;SDS011;57767;42.068;24.752;2023-08-24T00:57:27;10.73;;;7.97;;
70342;SDS011;57767;42.068;24.752;2023-08-24T00:58:29;9.27;;;8.38;;
70342;SDS011;57767;42.068;24.752;2023-08-24T00:59:33;9.00;;;8.05;;
70342;SDS011;57767;42.068;24.752;2023-08-24T01:00:36;12.50;;;8.38;;
70342;SDS011;57767;42.068;24.752;2023-08-24T01:01:39;9.10;;;8.20;;
70342;SDS011;57767;42.068;24.752;2023-08-24T01:02:43;10.38;;;7.53;;
70342;SDS011;57767;42.068;24.752;2023-08-24T01:03:45;9.25;;;7.85;;
70342;SDS011;57767;42.068;24.752;2023-08-24T01:04:47;8.50;;;7.65;;
70342;SDS011;57767;42.068;24.752;2023-08-24T01:05:48;9.82;;;7.95;;
70342;SDS011;57767;42.068;24.752;2023-08-24T01:06:51;9.15;;;8.10;;
70342;SDS011;57767;42.068;24.752;2023-08-24T01:07:53;9.35;;;8.48;;
70342;SDS011;57767;42.068;24.752;2023-08-24T01:08:55;8.48;;;7.68;;
70342;SDS011;57767;42.068;24.752;2023-08-24T01:09:57;11.88;;;8.48;;
70342;SDS011;57767;42.068;24.752;2023-08-24T01:13:51;9.38;;;8.02;;
70342;SDS011;57767;42.068;24.752;2023-08-24T01:16:07;10.43;;;8.20;;
70342;SDS011;57767;42.068;24.752;2023-08-24T01:17:14;10.02;;;8.27;;
70342;SDS011;57767;42.068;24.752;2023-08-24T01:18:19;10.98;;;7.47;;
70342;SDS011;57767;42.068;24.752;2023-08-24T01:19:34;10.27;;;8.43;;
70342;SDS011;57767;42.068;24.752;2023-08-24T01:20:40;8.60;;;7.78;;
70342;SDS011;57767;42.068;24.752;2023-08-24T01:21:43;9.95;;;8.27;;
70342;SDS011;57767;42.068;24.752;2023-08-24T01:24:28;9.40;;;8.40;;
70342;SDS011;57767;42.068;24.752;2023-08-24T01:25:38;10.90;;;8.60;;
70342;SDS011;57767;42.068;24.752;2023-08-24T01:26:47;12.23;;;8.90;;
70342;SDS011;57767;42.068;24.752;2023-08-24T01:27:50;12.60;;;8.55;;
70342;SDS011;57767;42.068;24.752;2023-08-24T01:28:53;11.43;;;9.00;;
70342;SDS011;57767;42.068;24.752;2023-08-24T01:29:55;11.52;;;8.90;;
70342;SDS011;57767;42.068;24.752;2023-08-24T01:30:58;14.20;;;8.90;;
70342;SDS011;57767;42.068;24.752;2023-08-24T01:32:00;9.77;;;8.77;;
70342;SDS011;57767;42.068;24.752;2023-08-24T01:33:02;11.10;;;8.55;;
70342;SDS011;57767;42.068;24.752;2023-08-24T01:34:06;12.77;;;9.95;;
70342;SDS011;57767;42.068;24.752;2023-08-24T01:35:08;9.57;;;8.57;;
70342;SDS011;57767;42.068;24.752;2023-08-24T01:36:11;11.32;;;8.65;;
70342;SDS011;57767;42.068;24.752;2023-08-24T01:37:14;15.63;;;8.75;;
70342;SDS011;57767;42.068;24.752;2023-08-24T01:38:16;9.57;;;8.27;;
70342;SDS011;57767;42.068;24.752;2023-08-24T01:39:20;10.13;;;8.40;;
70342;SDS011;57767;42.068;24.752;2023-08-24T01:40:39;11.85;;;8.65;;
70342;SDS011;57767;42.068;24.752;2023-08-24T01:42:04;9.52;;;8.50;;
70342;SDS011;57767;42.068;24.752;2023-08-24T01:43:10;11.07;;;8.30;;
70342;SDS011;57767;42.068;24.752;2023-08-24T01:44:18;9.07;;;8.18;;
70342;SDS011;57767;42.068;24.752;2023-08-24T01:45:24;10.57;;;9.05;;
70342;SDS011;57767;42.068;24.752;2023-08-24T01:46:30;12.35;;;8.70;;
70342;SDS011;57767;42.068;24.752;2023-08-24T01:47:35;9.60;;;8.27;;
70342;SDS011;57767;42.068;24.752;2023-08-24T01:48:39;10.63;;;9.15;;
70342;SDS011;57767;42.068;24.752;2023-08-24T01:49:42;11.57;;;8.85;;
70342;SDS011;57767;42.068;24.752;2023-08-24T01:50:44;9.07;;;8.18;;
70342;SDS011;57767;42.068;24.752;2023-08-24T01:51:47;9.90;;;8.57;;
70342;SDS011;57767;42.068;24.752;2023-08-24T01:52:50;9.75;;;8.65;;
70342;SDS011;57767;42.068;24.752;2023-08-24T01:53:52;9.68;;;8.57;;
70342;SDS011;57767;42.068;24.752;2023-08-24T01:54:55;10.70;;;8.77;;
70342;SDS011;57767;42.068;24.752;2023-08-24T01:55:57;11.93;;;8.82;;
70342;SDS011;57767;42.068;24.752;2023-08-24T01:56:58;9.50;;;8.60;;
70342;SDS011;57767;42.068;24.752;2023-08-24T01:58:00;9.80;;;8.80;;
70342;SDS011;57767;42.068;24.752;2023-08-24T01:59:02;10.23;;;8.20;;
70342;SDS011;57767;42.068;24.752;2023-08-24T02:00:05;11.07;;;8.57;;
70342;SDS011;57767;42.068;24.752;2023-08-24T02:01:11;11.48;;;8.98;;
70342;SDS011;57767;42.068;24.752;2023-08-24T02:02:14;10.32;;;9.15;;
70342;SDS011;57767;42.068;24.752;2023-08-24T02:03:16;10.80;;;8.52;;
70342;SDS011;57767;42.068;24.752;2023-08-24T02:04:17;11.65;;;8.52;;
70342;SDS011;57767;42.068;24.752;2023-08-24T02:05:19;10.60;;;8.60;;
70342;SDS011;57767;42.068;24.752;2023-08-24T02:06:21;12.13;;;8.82;;
70342;SDS011;57767;42.068;24.752;2023-08-24T02:07:23;9.10;;;8.20;;
70342;SDS011;57767;42.068;24.752;2023-08-24T02:08:25;9.88;;;8.45;;
70342;SDS011;57767;42.068;24.752;2023-08-24T02:09:26;9.23;;;7.88;;
70342;SDS011;57767;42.068;24.752;2023-08-24T02:10:28;9.63;;;8.20;;
70342;SDS011;57767;42.068;24.752;2023-08-24T02:11:30;10.73;;;7.95;;
70342;SDS011;57767;42.068;24.752;2023-08-24T02:12:32;9.88;;;8.45;;
70342;SDS011;57767;42.068;24.752;2023-08-24T02:13:34;11.13;;;8.55;;
70342;SDS011;57767;42.068;24.752;2023-08-24T02:14:36;9.52;;;8.50;;
70342;SDS011;57767;42.068;24.752;2023-08-24T02:15:38;9.48;;;8.55;;
70342;SDS011;57767;42.068;24.752;2023-08-24T02:16:42;9.35;;;8.35;;
70342;SDS011;57767;42.068;24.752;2023-08-24T02:17:44;9.98;;;8.65;;
70342;SDS011;57767;42.068;24.752;2023-08-24T02:18:46;8.70;;;7.90;;
70342;SDS011;57767;42.068;24.752;2023-08-24T02:19:47;9.55;;;8.43;;
70342;SDS011;57767;42.068;24.752;2023-08-24T02:20:49;8.55;;;7.75;;
70342;SDS011;57767;42.068;24.752;2023-08-24T02:21:51;10.02;;;8.18;;
70342;SDS011;57767;42.068;24.752;2023-08-24T02:22:53;9.00;;;8.07;;
70342;SDS011;57767;42.068;24.752;2023-08-24T02:23:55;10.50;;;7.90;;
70342;SDS011;57767;42.068;24.752;2023-08-24T02:24:58;10.57;;;8.23;;
70342;SDS011;57767;42.068;24.752;2023-08-24T02:25:59;10.15;;;9.10;;
70342;SDS011;57767;42.068;24.752;2023-08-24T02:27:01;10.07;;;8.27;;
70342;SDS011;57767;42.068;24.752;2023-08-24T02:28:03;10.73;;;8.38;;
70342;SDS011;57767;42.068;24.752;2023-08-24T02:29:05;10.98;;;8.63;;
70342;SDS011;57767;42.068;24.752;2023-08-24T02:30:08;9.32;;;8.43;;
70342;SDS011;57767;42.068;24.752;2023-08-24T02:31:10;9.13;;;7.63;;
70342;SDS011;57767;42.068;24.752;2023-08-24T02:32:12;11.27;;;8.73;;
70342;SDS011;57767;42.068;24.752;2023-08-24T02:33:14;9.00;;;8.10;;
70342;SDS011;57767;42.068;24.752;2023-08-24T02:34:16;12.25;;;8.70;;
70342;SDS011;57767;42.068;24.752;2023-08-24T02:35:18;9.55;;;8.15;;
70342;SDS011;57767;42.068;24.752;2023-08-24T02:36:20;9.32;;;8.45;;
70342;SDS011;57767;42.068;24.752;2023-08-24T02:37:22;10.55;;;8.20;;
70342;SDS011;57767;42.068;24.752;2023-08-24T02:38:24;9.93;;;8.70;;
70342;SDS011;57767;42.068;24.752;2023-08-24T02:39:26;11.57;;;8.57;;
70342;SDS011;57767;42.068;24.752;2023-08-24T02:40:27;11.65;;;8.75;;
70342;SDS011;57767;42.068;24.752;2023-08-24T02:41:29;8.73;;;7.82;;
70342;SDS011;57767;42.068;24.752;2023-08-24T02:42:31;9.93;;;7.80;;
70342;SDS011;57767;42.068;24.752;2023-08-24T02:43:34;8.90;;;8.00;;
70342;SDS011;57767;42.068;24.752;2023-08-24T02:44:36;9.77;;;8.07;;
70342;SDS011;57767;42.068;24.752;2023-08-24T02:45:37;8.75;;;7.85;;
70342;SDS011;57767;42.068;24.752;2023-08-24T02:46:39;12.15;;;9.18;;
70342;SDS011;57767;42.068;24.752;2023-08-24T02:47:41;11.70;;;8.68;;
70342;SDS011;57767;42.068;24.752;2023-08-24T02:48:43;8.85;;;7.95;;
70342;SDS011;57767;42.068;24.752;2023-08-24T02:49:45;9.45;;;8.30;;
70342;SDS011;57767;42.068;24.752;2023-08-24T02:50:47;11.82;;;8.43;;
70342;SDS011;57767;42.068;24.752;2023-08-24T02:51:49;9.98;;;8.55;;
70342;SDS011;57767;42.068;24.752;2023-08-24T02:52:51;13.15;;;8.13;;
70342;SDS011;57767;42.068;24.752;2023-08-24T02:53:53;10.10;;;8.68;;
70342;SDS011;57767;42.068;24.752;2023-08-24T02:54:55;9.13;;;8.23;;
70342;SDS011;57767;42.068;24.752;2023-08-24T02:55:57;10.20;;;8.95;;
70342;SDS011;57767;42.068;24.752;2023-08-24T02:56:59;9.32;;;8.32;;
70342;SDS011;57767;42.068;24.752;2023-08-24T02:58:01;9.25;;;8.35;;
70342;SDS011;57767;42.068;24.752;2023-08-24T02:59:03;12.05;;;8.57;;
70342;SDS011;57767;42.068;24.752;2023-08-24T03:00:05;9.57;;;8.57;;
70342;SDS011;57767;42.068;24.752;2023-08-24T03:01:08;9.57;;;8.57;;
70342;SDS011;57767;42.068;24.752;2023-08-24T03:02:10;11.73;;;8.48;;
70342;SDS011;57767;42.068;24.752;2023-08-24T03:03:15;9.25;;;8.35;;
70342;SDS011;57767;42.068;24.752;2023-08-24T03:04:17;12.35;;;8.00;;
70342;SDS011;57767;42.068;24.752;2023-08-24T03:05:19;10.90;;;9.63;;
70342;SDS011;57767;42.068;24.752;2023-08-24T03:06:21;10.13;;;8.55;;
70342;SDS011;57767;42.068;24.752;2023-08-24T03:07:25;10.43;;;8.40;;
70342;SDS011;57767;42.068;24.752;2023-08-24T03:08:27;11.88;;;9.23;;
70342;SDS011;57767;42.068;24.752;2023-08-24T03:09:29;12.63;;;8.70;;
70342;SDS011;57767;42.068;24.752;2023-08-24T03:10:31;10.18;;;8.30;;
70342;SDS011;57767;42.068;24.752;2023-08-24T03:11:35;10.95;;;8.73;;
70342;SDS011;57767;42.068;24.752;2023-08-24T03:12:37;12.88;;;9.75;;
70342;SDS011;57767;42.068;24.752;2023-08-24T03:13:39;10.30;;;9.30;;
70342;SDS011;57767;42.068;24.752;2023-08-24T03:14:41;13.48;;;9.13;;
70342;SDS011;57767;42.068;24.752;2023-08-24T03:15:43;14.55;;;9.30;;
70342;SDS011;57767;42.068;24.752;2023-08-24T03:16:45;12.10;;;8.75;;
70342;SDS011;57767;42.068;24.752;2023-08-24T03:17:47;9.65;;;8.63;;
70342;SDS011;57767;42.068;24.752;2023-08-24T03:18:49;11.95;;;8.65;;
70342;SDS011;57767;42.068;24.752;2023-08-24T03:19:51;12.70;;;8.45;;
70342;SDS011;57767;42.068;24.752;2023-08-24T03:20:53;9.95;;;8.70;;
70342;SDS011;57767;42.068;24.752;2023-08-24T03:21:54;12.45;;;8.73;;
70342;SDS011;57767;42.068;24.752;2023-08-24T03:22:56;10.05;;;8.43;;
70342;SDS011;57767;42.068;24.752;2023-08-24T03:23:59;12.40;;;8.60;;
70342;SDS011;57767;42.068;24.752;2023-08-24T03:25:00;10.18;;;8.60;;
70342;SDS011;57767;42.068;24.752;2023-08-24T03:26:02;9.90;;;8.95;;
70342;SDS011;57767;42.068;24.752;2023-08-24T03:27:04;10.05;;;8.80;;
70342;SDS011;57767;42.068;24.752;2023-08-24T03:28:07;13.18;;;8.00;;
70342;SDS011;57767;42.068;24.752;2023-08-24T03:29:10;13.48;;;9.30;;
70342;SDS011;57767;42.068;24.752;2023-08-24T03:30:12;11.20;;;8.93;;
70342;SDS011;57767;42.068;24.752;2023-08-24T03:31:14;9.75;;;8.75;;
70342;SDS011;57767;42.068;24.752;2023-08-24T03:32:16;13.15;;;9.15;;
70342;SDS011;57767;42.068;24.752;2023-08-24T03:33:18;9.40;;;8.45;;
70342;SDS011;57767;42.068;24.752;2023-08-24T03:34:20;9.25;;;8.27;;
70342;SDS011;57767;42.068;24.752;2023-08-24T03:35:22;12.00;;;9.32;;
70342;SDS011;57767;42.068;24.752;2023-08-24T03:36:24;9.52;;;8.63;;
70342;SDS011;57767;42.068;24.752;2023-08-24T03:37:26;9.57;;;8.60;;
70342;SDS011;57767;42.068;24.752;2023-08-24T03:38:27;10.60;;;8.77;;
70342;SDS011;57767;42.068;24.752;2023-08-24T03:39:29;13.40;;;9.30;;
70342;SDS011;57767;42.068;24.752;2023-08-24T03:40:31;13.45;;;9.35;;
70342;SDS011;57767;42.068;24.752;2023-08-24T03:41:33;10.00;;;8.98;;
70342;SDS011;57767;42.068;24.752;2023-08-24T03:42:35;10.57;;;9.05;;
70342;SDS011;57767;42.068;24.752;2023-08-24T03:43:37;11.30;;;8.85;;
70342;SDS011;57767;42.068;24.752;2023-08-24T03:44:39;9.70;;;8.80;;
70342;SDS011;57767;42.068;24.752;2023-08-24T03:45:41;10.20;;;9.15;;
70342;SDS011;57767;42.068;24.752;2023-08-24T03:46:43;11.63;;;9.20;;
70342;SDS011;57767;42.068;24.752;2023-08-24T03:47:45;10.60;;;8.43;;
70342;SDS011;57767;42.068;24.752;2023-08-24T03:48:47;10.88;;;8.85;;
70342;SDS011;57767;42.068;24.752;2023-08-24T03:49:49;12.23;;;8.88;;
70342;SDS011;57767;42.068;24.752;2023-08-24T03:50:53;12.15;;;8.80;;
70342;SDS011;57767;42.068;24.752;2023-08-24T03:51:56;12.45;;;9.02;;
70342;SDS011;57767;42.068;24.752;2023-08-24T03:52:58;13.48;;;8.65;;
70342;SDS011;57767;42.068;24.752;2023-08-24T03:53:59;12.93;;;9.10;;
70342;SDS011;57767;42.068;24.752;2023-08-24T03:55:01;10.95;;;9.18;;
70342;SDS011;57767;42.068;24.752;2023-08-24T03:56:03;11.20;;;9.23;;
70342;SDS011;57767;42.068;24.752;2023-08-24T03:57:05;14.55;;;9.07;;
70342;SDS011;57767;42.068;24.752;2023-08-24T03:58:07;13.70;;;9.50;;
70342;SDS011;57767;42.068;24.752;2023-08-24T03:59:09;15.50;;;9.30;;
70342;SDS011;57767;42.068;24.752;2023-08-24T04:00:11;17.60;;;9.93;;
70342;SDS011;57767;42.068;24.752;2023-08-24T04:01:13;18.80;;;8.85;;
70342;SDS011;57767;42.068;24.752;2023-08-24T04:02:15;17.88;;;9.65;;
70342;SDS011;57767;42.068;24.752;2023-08-24T04:03:17;22.73;;;9.07;;
70342;SDS011;57767;42.068;24.752;2023-08-24T04:04:19;16.80;;;9.63;;
70342;SDS011;57767;42.068;24.752;2023-08-24T04:05:21;16.77;;;9.77;;
70342;SDS011;57767;42.068;24.752;2023-08-24T04:06:23;12.23;;;8.75;;
70342;SDS011;57767;42.068;24.752;2023-08-24T04:07:25;18.95;;;9.68;;
70342;SDS011;57767;42.068;24.752;2023-08-24T04:08:27;12.57;;;9.80;;
70342;SDS011;57767;42.068;24.752;2023-08-24T04:09:29;14.13;;;9.48;;
70342;SDS011;57767;42.068;24.752;2023-08-24T04:10:30;12.55;;;8.88;;
70342;SDS011;57767;42.068;24.752;2023-08-24T04:11:35;14.40;;;9.38;;
70342;SDS011;57767;42.068;24.752;2023-08-24T04:12:37;24.27;;;9.82;;
70342;SDS011;57767;42.068;24.752;2023-08-24T04:13:39;18.25;;;10.25;;
70342;SDS011;57767;42.068;24.752;2023-08-24T04:14:41;28.38;;;10.43;;
70342;SDS011;57767;42.068;24.752;2023-08-24T04:15:42;28.67;;;10.65;;
70342;SDS011;57767;42.068;24.752;2023-08-24T04:16:44;32.83;;;11.88;;
70342;SDS011;57767;42.068;24.752;2023-08-24T04:17:46;50.97;;;11.38;;
70342;SDS011;57767;42.068;24.752;2023-08-24T04:18:49;30.00;;;11.27;;
70342;SDS011;57767;42.068;24.752;2023-08-24T04:19:50;28.90;;;11.98;;
70342;SDS011;57767;42.068;24.752;2023-08-24T04:20:52;31.80;;;11.48;;
70342;SDS011;57767;42.068;24.752;2023-08-24T04:21:54;24.85;;;10.40;;
70342;SDS011;57767;42.068;24.752;2023-08-24T04:22:56;31.20;;;11.52;;
70342;SDS011;57767;42.068;24.752;2023-08-24T04:23:58;29.17;;;11.25;;
70342;SDS011;57767;42.068;24.752;2023-08-24T04:25:00;22.20;;;10.70;;
70342;SDS011;57767;42.068;24.752;2023-08-24T04:26:02;22.25;;;10.18;;
70342;SDS011;57767;42.068;24.752;2023-08-24T04:27:06;29.63;;;11.20;;
70342;SDS011;57767;42.068;24.752;2023-08-24T04:28:08;35.78;;;11.25;;
70342;SDS011;57767;42.068;24.752;2023-08-24T04:29:10;38.17;;;11.82;;
70342;SDS011;57767;42.068;24.752;2023-08-24T04:30:12;26.50;;;10.73;;
70342;SDS011;57767;42.068;24.752;2023-08-24T04:31:15;33.15;;;11.10;;
70342;SDS011;57767;42.068;24.752;2023-08-24T04:32:17;29.60;;;12.82;;
70342;SDS011;57767;42.068;24.752;2023-08-24T04:33:19;30.55;;;11.63;;
70342;SDS011;57767;42.068;24.752;2023-08-24T04:34:21;36.00;;;11.80;;
70342;SDS011;57767;42.068;24.752;2023-08-24T04:35:25;27.58;;;10.68;;
70342;SDS011;57767;42.068;24.752;2023-08-24T04:36:28;28.80;;;10.98;;
70342;SDS011;57767;42.068;24.752;2023-08-24T04:37:29;17.02;;;10.07;;
70342;SDS011;57767;42.068;24.752;2023-08-24T04:38:31;22.70;;;12.75;;
70342;SDS011;57767;42.068;24.752;2023-08-24T04:39:33;16.48;;;9.52;;
70342;SDS011;57767;42.068;24.752;2023-08-24T04:40:45;24.08;;;9.57;;
70342;SDS011;57767;42.068;24.752;2023-08-24T04:41:53;19.15;;;10.15;;
70342;SDS011;57767;42.068;24.752;2023-08-24T04:42:55;16.00;;;9.95;;
70342;SDS011;57767;42.068;24.752;2023-08-24T04:43:57;15.55;;;11.52;;
70342;SDS011;57767;42.068;24.752;2023-08-24T04:44:59;25.55;;;11.68;;
70342;SDS011;57767;42.068;24.752;2023-08-24T04:46:02;19.85;;;10.05;;
70342;SDS011;57767;42.068;24.752;2023-08-24T04:47:04;19.13;;;10.27;;
70342;SDS011;57767;42.068;24.752;2023-08-24T04:48:06;34.42;;;11.38;;
70342;SDS011;57767;42.068;24.752;2023-08-24T04:49:08;65.88;;;14.45;;
70342;SDS011;57767;42.068;24.752;2023-08-24T04:50:09;61.97;;;13.50;;
70342;SDS011;57767;42.068;24.752;2023-08-24T04:51:11;38.30;;;11.73;;
70342;SDS011;57767;42.068;24.752;2023-08-24T04:52:13;91.90;;;16.85;;
70342;SDS011;57767;42.068;24.752;2023-08-24T04:53:18;87.50;;;15.13;;
70342;SDS011;57767;42.068;24.752;2023-08-24T04:54:21;64.78;;;12.32;;
70342;SDS011;57767;42.068;24.752;2023-08-24T04:55:23;33.72;;;10.60;;
70342;SDS011;57767;42.068;24.752;2023-08-24T04:56:24;31.17;;;9.82;;
70342;SDS011;57767;42.068;24.752;2023-08-24T04:57:26;15.20;;;9.40;;
70342;SDS011;57767;42.068;24.752;2023-08-24T04:58:28;14.05;;;9.40;;
70342;SDS011;57767;42.068;24.752;2023-08-24T04:59:30;14.20;;;9.15;;
70342;SDS011;57767;42.068;24.752;2023-08-24T05:00:31;24.48;;;9.70;;
70342;SDS011;57767;42.068;24.752;2023-08-24T05:01:34;24.35;;;9.32;;
70342;SDS011;57767;42.068;24.752;2023-08-24T05:02:39;41.60;;;10.77;;
70342;SDS011;57767;42.068;24.752;2023-08-24T05:03:41;24.75;;;9.88;;
70342;SDS011;57767;42.068;24.752;2023-08-24T05:04:43;31.13;;;9.15;;
70342;SDS011;57767;42.068;24.752;2023-08-24T05:05:44;20.58;;;9.60;;
70342;SDS011;57767;42.068;24.752;2023-08-24T05:06:47;15.88;;;9.15;;
70342;SDS011;57767;42.068;24.752;2023-08-24T05:07:48;16.55;;;9.02;;
70342;SDS011;57767;42.068;24.752;2023-08-24T05:08:51;20.02;;;8.82;;
70342;SDS011;57767;42.068;24.752;2023-08-24T05:09:53;11.32;;;8.40;;
70342;SDS011;57767;42.068;24.752;2023-08-24T05:10:55;16.05;;;8.48;;
70342;SDS011;57767;42.068;24.752;2023-08-24T05:11:57;16.75;;;7.85;;
70342;SDS011;57767;42.068;24.752;2023-08-24T05:12:59;11.18;;;7.90;;
70342;SDS011;57767;42.068;24.752;2023-08-24T05:14:01;14.52;;;9.38;;
70342;SDS011;57767;42.068;24.752;2023-08-24T05:15:03;10.88;;;8.32;;
70342;SDS011;57767;42.068;24.752;2023-08-24T05:16:05;11.32;;;8.55;;
70342;SDS011;57767;42.068;24.752;2023-08-24T05:17:07;14.25;;;8.60;;
70342;SDS011;57767;42.068;24.752;2023-08-24T05:18:09;12.35;;;8.77;;
70342;SDS011;57767;42.068;24.752;2023-08-24T05:19:11;12.95;;;8.88;;
70342;SDS011;57767;42.068;24.752;2023-08-24T05:20:12;16.42;;;9.35;;
70342;SDS011;57767;42.068;24.752;2023-08-24T05:21:14;16.92;;;7.90;;
70342;SDS011;57767;42.068;24.752;2023-08-24T05:22:16;17.88;;;8.70;;
70342;SDS011;57767;42.068;24.752;2023-08-24T05:23:18;9.77;;;8.77;;
70342;SDS011;57767;42.068;24.752;2023-08-24T05:24:20;12.82;;;8.68;;
70342;SDS011;57767;42.068;24.752;2023-08-24T05:25:22;12.30;;;8.80;;
70342;SDS011;57767;42.068;24.752;2023-08-24T05:26:24;14.02;;;8.52;;
70342;SDS011;57767;42.068;24.752;2023-08-24T05:27:26;13.02;;;8.48;;
70342;SDS011;57767;42.068;24.752;2023-08-24T05:28:28;14.85;;;8.77;;
70342;SDS011;57767;42.068;24.752;2023-08-24T05:29:31;12.45;;;8.40;;
70342;SDS011;57767;42.068;24.752;2023-08-24T05:30:32;12.57;;;8.13;;
70342;SDS011;57767;42.068;24.752;2023-08-24T05:31:34;14.70;;;8.13;;
70342;SDS011;57767;42.068;24.752;2023-08-24T05:32:36;13.50;;;8.57;;
70342;SDS011;57767;42.068;24.752;2023-08-24T05:33:41;14.07;;;9.18;;
70342;SDS011;57767;42.068;24.752;2023-08-24T05:34:42;12.50;;;8.65;;
70342;SDS011;57767;42.068;24.752;2023-08-24T05:35:44;10.45;;;8.82;;
70342;SDS011;57767;42.068;24.752;2023-08-24T05:36:46;9.75;;;7.78;;
70342;SDS011;57767;42.068;24.752;2023-08-24T05:37:48;13.40;;;8.70;;
70342;SDS011;57767;42.068;24.752;2023-08-24T05:38:50;14.80;;;8.85;;
70342;SDS011;57767;42.068;24.752;2023-08-24T05:40:06;9.93;;;8.85;;
70342;SDS011;57767;42.068;24.752;2023-08-24T05:41:08;14.32;;;8.10;;
70342;SDS011;57767;42.068;24.752;2023-08-24T05:42:10;13.15;;;8.15;;
70342;SDS011;57767;42.068;24.752;2023-08-24T05:43:13;11.15;;;7.78;;
70342;SDS011;57767;42.068;24.752;2023-08-24T05:44:15;11.50;;;8.20;;
70342;SDS011;57767;42.068;24.752;2023-08-24T05:45:18;17.13;;;8.60;;
70342;SDS011;57767;42.068;24.752;2023-08-24T05:46:20;15.00;;;7.90;;
70342;SDS011;57767;42.068;24.752;2023-08-24T05:47:21;10.90;;;7.63;;
70342;SDS011;57767;42.068;24.752;2023-08-24T05:48:23;14.57;;;7.55;;
70342;SDS011;57767;42.068;24.752;2023-08-24T05:49:25;13.52;;;8.25;;
70342;SDS011;57767;42.068;24.752;2023-08-24T05:50:27;10.07;;;8.30;;
70342;SDS011;57767;42.068;24.752;2023-08-24T05:51:29;15.10;;;8.50;;
70342;SDS011;57767;42.068;24.752;2023-08-24T05:52:31;14.55;;;8.93;;
70342;SDS011;57767;42.068;24.752;2023-08-24T05:53:32;13.90;;;8.02;;
70342;SDS011;57767;42.068;24.752;2023-08-24T05:54:36;15.20;;;8.30;;
70342;SDS011;57767;42.068;24.752;2023-08-24T05:55:38;28.25;;;8.85;;
70342;SDS011;57767;42.068;24.752;2023-08-24T05:56:40;10.02;;;8.65;;
70342;SDS011;57767;42.068;24.752;2023-08-24T05:57:41;10.57;;;8.52;;
70342;SDS011;57767;42.068;24.752;2023-08-24T05:58:43;11.38;;;8.10;;
70342;SDS011;57767;42.068;24.752;2023-08-24T05:59:45;13.43;;;7.70;;
70342;SDS011;57767;42.068;24.752;2023-08-24T06:00:47;9.75;;;8.10;;
70342;SDS011;57767;42.068;24.752;2023-08-24T06:01:49;9.02;;;7.93;;
70342;SDS011;57767;42.068;24.752;2023-08-24T06:02:51;12.75;;;8.35;;
70342;SDS011;57767;42.068;24.752;2023-08-24T06:03:53;10.13;;;8.32;;
70342;SDS011;57767;42.068;24.752;2023-08-24T06:04:55;9.32;;;8.40;;
70342;SDS011;57767;42.068;24.752;2023-08-24T06:06:00;13.63;;;8.30;;
70342;SDS011;57767;42.068;24.752;2023-08-24T06:07:06;9.15;;;8.10;;
70342;SDS011;57767;42.068;24.752;2023-08-24T06:08:08;14.00;;;8.02;;
70342;SDS011;57767;42.068;24.752;2023-08-24T06:09:10;12.73;;;8.55;;
70342;SDS011;57767;42.068;24.752;2023-08-24T06:10:12;15.43;;;8.25;;
70342;SDS011;57767;42.068;24.752;2023-08-24T06:11:14;11.52;;;8.48;;
70342;SDS011;57767;42.068;24.752;2023-08-24T06:12:18;20.88;;;8.52;;